CheckWX is a tool to help pilots better visualize weather data.  It is not intended as a substitute for an official pre-flight weather briefing.

14:34:31 UTC

KDFI METAR
Defiance Memorial Airport
Defiance, Ohio, USA
Current

42 mins ago

KDFI 221353Z AUTO 19007KT 10SM CLR 14/09 A3022 RMK AO2 SLP234 T01440089
Observed
Apr-22 @ 13:53 UTC
Wind
  • 190° at 7 KTS
Visibility
10 SM
Flight Rules
VFR
Cloud Levels
  • Clear skies
Temperature
14°C / 57°F
Dewpoint
C / 48°F
Humidity
72%
Altimeter
30.22" Hg
Pressure
1023.42 hPa
Previous

2 hours ago

KDFI 221253Z AUTO 18004KT 10SM CLR 13/08 A3021 RMK AO2 SLP231 T01280083
Observed
Apr-22 @ 12:53 UTC
Wind
  • 180° at 4 KTS
Visibility
10 SM
Flight Rules
VFR
Cloud Levels
  • Clear skies
Temperature
13°C / 55°F
Dewpoint
C / 46°F
Humidity
72%
Altimeter
30.21" Hg
Pressure
1023.02 hPa
Previous

3 hours ago

KDFI 221153Z AUTO 20003KT 10SM CLR 09/07 A3021 RMK AO2 SLP230 T00940067 10106 20083 53009
Observed
Apr-22 @ 11:53 UTC
Wind
  • 200° at 3 KTS
Visibility
10 SM
Flight Rules
VFR
Cloud Levels
  • Clear skies
Temperature
C / 48°F
Dewpoint
C / 45°F
Humidity
87%
Altimeter
30.21" Hg
Pressure
1023.02 hPa